This is the latest recevied weather packets stored in our database for station/object KD4WXI. If no packets are shown the sender has not sent any weather packets the latest 1 day(s).
| Time | Temp. | Humidity | Pressure | Rain* | Wind** | Luminosity | Snow |
|---|---|---|---|---|---|---|---|
| 1778090036 | 18.89° C | 94% | 1013.6 hPa | 0 mm | - | 444 W/m² | - |
| 1778089431 | 18.33° C | 96% | 1014.3 hPa | 0 mm | - | 238 W/m² | - |
| 1778088522 | 17.78° C | 97% | 1015 hPa | 0 mm | - | 119 W/m² | - |
| 1778087916 | 17.78° C | 95% | 1015 hPa | 3.05 mm | - | 131 W/m² | - |
| 1778087613 | 17.78° C | 95% | 1015.1 hPa | 0 mm | - | 89 W/m² | - |
| 1778087311 | 18.33° C | 94% | 1015.5 hPa | 1.27 mm | - | 68 W/m² | - |
| 1778086706 | 19.44° C | 89% | 1015.6 hPa | 7.87 mm | - | 79 W/m² | - |
| 1778085796 | 20.56° C | 77% | 1015.4 hPa | 0 mm | - | 91 W/m² | - |
| 1778084884 | 21.67° C | 71% | 1015.1 hPa | 0 mm | - | 117 W/m² | - |
| 1778084279 | 21.67° C | 69% | 1015 hPa | 0 mm | - | 127 W/m² | - |
| 1778083674 | 21.67° C | 69% | 1014.6 hPa | 0 mm | - | 129 W/m² | - |
| 1778080119 | 19.44° C | 76% | 1014 hPa | 0 mm | - | 125 W/m² | - |
| 1778079512 | 19.44° C | 76% | 1013.8 hPa | 0 mm | - | 89 W/m² | - |
| 1778079208 | 19.44° C | 76% | 1014 hPa | 0 mm | - | 74 W/m² | - |
| 1778077696 | 18.89° C | 77% | 1014.3 hPa | 0 mm | - | 71 W/m² | - |
| 1778075881 | 18.89° C | 76% | 1014.6 hPa | 0 mm | - | 87 W/m² | - |
| 1778075274 | 18.33° C | 76% | 1014.1 hPa | 0 mm | - | 98 W/m² | - |
| 1778074364 | 18.33° C | 77% | 1014.1 hPa | 0 mm | - | 82 W/m² | - |
| 1778074061 | 18.33° C | 77% | 1014.1 hPa | 0 mm | - | 84 W/m² | - |
| 1778073456 | 18.33° C | 77% | 1014.1 hPa | 0 mm | - | 87 W/m² | - |
| 1778072244 | 17.78° C | 76% | 1013.9 hPa | 0 mm | - | 78 W/m² | - |
| 1778071337 | 17.78° C | 76% | 1014.5 hPa | 0 mm | - | 80 W/m² | - |
| 1778071034 | 17.78° C | 76% | 1014.1 hPa | 0 mm | - | 95 W/m² | - |
| 1778070733 | 17.78° C | 76% | 1014.2 hPa | 0 mm | - | 82 W/m² | - |
| 1778070429 | 17.78° C | 76% | 1014.7 hPa | 0 mm | - | 87 W/m² | - |
* Rain latest hour (hover to see other rain measurements)
** Current wind speed in m/s (hover to see current wind gust speed)